createdAt,value
2023-02-23T00:02:20.047Z,93471.34
2023-02-23T00:04:48.282Z,93472.75
2023-02-23T00:07:20.162Z,93473.75
2023-02-23T00:09:48.078Z,93473.72
2023-02-23T00:12:17.450Z,93474.97
2023-02-23T00:14:45.463Z,93478.63
2023-02-23T00:17:14.972Z,93465.47
2023-02-23T00:19:44.110Z,93464.84
2023-02-23T00:22:12.948Z,93482.28
2023-02-23T00:24:43.063Z,93477.41
2023-02-23T00:27:17.944Z,93475.81
2023-02-23T00:29:49.589Z,93480.47
2023-02-23T00:32:21.185Z,93472.75
2023-02-23T00:34:52.597Z,93464.88
2023-02-23T00:37:23.288Z,93476.41
2023-02-23T00:39:52.322Z,93479.84
2023-02-23T00:42:20.627Z,93484.28
2023-02-23T00:44:49.545Z,93483.28
2023-02-23T00:47:17.582Z,93480.06
2023-02-23T00:49:45.663Z,93463.84
2023-02-23T00:52:14.874Z,93470.34
2023-02-23T00:54:42.875Z,93471.16
2023-02-23T00:57:10.892Z,93458.00
2023-02-23T00:59:38.743Z,93475.38
2023-02-23T01:02:07.415Z,93471.56
2023-02-23T01:04:35.360Z,93472.38
2023-02-23T01:07:06.630Z,93475.19
2023-02-23T01:09:34.624Z,93480.63
2023-02-23T01:12:07.817Z,93475.78
2023-02-23T01:14:38.258Z,93476.41
2023-02-23T01:17:07.723Z,93474.56
2023-02-23T01:19:37.680Z,93473.16
2023-02-23T01:22:05.771Z,93471.34
2023-02-23T01:24:33.743Z,93475.19
2023-02-23T01:27:05.462Z,93474.78
2023-02-23T01:29:34.859Z,93469.69
2023-02-23T01:32:04.703Z,93464.41
2023-02-23T01:34:33.071Z,93460.38
2023-02-23T01:37:01.071Z,93467.63
2023-02-23T01:39:29.862Z,93453.63
2023-02-23T01:41:57.718Z,93473.22
2023-02-23T01:44:25.752Z,93476.44
2023-02-23T01:46:53.666Z,93474.03
2023-02-23T01:49:28.746Z,93474.09
2023-02-23T01:52:11.218Z,93473.25
2023-02-23T01:54:44.551Z,93465.19
2023-02-23T01:57:15.077Z,93464.84
2023-02-23T01:59:44.055Z,93465.44
2023-02-23T02:02:13.609Z,93467.47
2023-02-23T02:04:46.060Z,93461.41
2023-02-23T02:07:23.019Z,93465.09
2023-02-23T02:10:12.903Z,93466.06
2023-02-23T02:12:44.707Z,93460.56
2023-02-23T02:15:20.071Z,93462.03
2023-02-23T02:18:18.859Z,93462.66
2023-02-23T02:21:14.338Z,93463.25
2023-02-23T02:24:00.999Z,93462.22
2023-02-23T02:26:53.957Z,93414.47
2023-02-23T02:29:51.503Z,93456.78
2023-02-23T02:32:39.632Z,93464.84
2023-02-23T02:35:07.753Z,93458.47
2023-02-23T02:37:50.431Z,93465.97
2023-02-23T02:40:24.301Z,93467.78
2023-02-23T02:43:11.407Z,93464.91
2023-02-23T02:45:39.246Z,93462.47
2023-02-23T02:48:20.980Z,93466.72
2023-02-23T02:50:51.609Z,93461.91
2023-02-23T02:53:45.378Z,93460.44
2023-02-23T02:57:59.378Z,93456.41
2023-02-23T03:00:56.761Z,93470.72
2023-02-23T03:03:54.111Z,93461.03
2023-02-23T03:07:01.862Z,93459.63
2023-02-23T03:10:14.571Z,93467.75
2023-02-23T03:13:16.902Z,93462.50
2023-02-23T03:16:39.710Z,93465.16
2023-02-23T03:19:41.653Z,93460.88
2023-02-23T03:22:51.380Z,93462.50
2023-02-23T03:25:43.114Z,93466.50
2023-02-23T03:28:36.242Z,93471.25
2023-02-23T03:31:52.248Z,93477.78
2023-02-23T03:34:51.830Z,93474.06
2023-02-23T03:37:43.265Z,93463.00
2023-02-23T03:40:37.674Z,93470.06
2023-02-23T03:43:32.511Z,93465.44
2023-02-23T03:46:21.951Z,93433.28
2023-02-23T03:49:09.819Z,93471.59
2023-02-23T03:51:59.545Z,93476.44
2023-02-23T03:54:53.529Z,93470.38
2023-02-23T03:57:44.819Z,93477.66
2023-02-23T04:00:38.797Z,93475.63
2023-02-23T04:03:26.907Z,93470.34
2023-02-23T04:06:16.064Z,93472.75
2023-02-23T04:09:03.090Z,93468.81
2023-02-23T04:12:06.049Z,93473.88
2023-02-23T04:14:40.307Z,93481.66
2023-02-23T04:17:09.743Z,93478.88
2023-02-23T04:19:37.786Z,93478.53
2023-02-23T04:22:05.845Z,93471.63
2023-02-23T04:24:33.910Z,93480.78
2023-02-23T04:27:03.122Z,93461.31
2023-02-23T04:29:31.072Z,93473.72
2023-02-23T04:31:59.253Z,93483.09
2023-02-23T04:34:27.108Z,93468.09
2023-02-23T04:36:55.093Z,93476.97
2023-02-23T04:39:22.972Z,93485.03
2023-02-23T04:41:51.137Z,93485.69
2023-02-23T04:44:19.045Z,93493.78
2023-02-23T04:46:46.987Z,93489.03
2023-02-23T04:49:14.902Z,93485.66
2023-02-23T04:51:42.864Z,93485.97
2023-02-23T04:54:10.923Z,93486.13
2023-02-23T04:56:39.671Z,93490.22
2023-02-23T04:59:07.676Z,93492.75
2023-02-23T05:01:37.393Z,93490.09
2023-02-23T05:04:05.507Z,93487.59
2023-02-23T05:06:33.747Z,93489.63
2023-02-23T05:09:03.404Z,93489.44
2023-02-23T05:11:31.311Z,93493.50
2023-02-23T05:13:59.388Z,93490.69
2023-02-23T05:16:27.914Z,93491.53
2023-02-23T05:18:56.012Z,93499.84
2023-02-23T05:21:23.902Z,93504.13
2023-02-23T05:23:51.850Z,93502.75
2023-02-23T05:26:20.369Z,93501.50
2023-02-23T05:28:49.089Z,93498.69
2023-02-23T05:31:17.932Z,93496.91
2023-02-23T05:33:46.057Z,93501.69
2023-02-23T05:36:17.791Z,93503.28
2023-02-23T05:38:46.706Z,93504.31
2023-02-23T05:41:20.983Z,93501.06
2023-02-23T05:43:52.591Z,93501.00
2023-02-23T05:46:25.898Z,93515.78
2023-02-23T05:48:59.431Z,93521.56
2023-02-23T05:51:29.139Z,93523.34
2023-02-23T05:53:57.267Z,93526.25
2023-02-23T05:56:26.600Z,93529.97
2023-02-23T05:58:55.789Z,93535.28
2023-02-23T06:01:23.859Z,93526.16
2023-02-23T06:03:52.425Z,93537.75
2023-02-23T06:06:20.714Z,93533.31
2023-02-23T06:08:50.069Z,93544.25
2023-02-23T06:11:18.368Z,93534.69
2023-02-23T06:13:46.517Z,93538.84
2023-02-23T06:16:14.708Z,93544.75
2023-02-23T06:18:42.690Z,93537.03
2023-02-23T06:21:10.874Z,93535.72
2023-02-23T06:23:39.222Z,93543.06
2023-02-23T06:26:07.970Z,93537.09
2023-02-23T06:28:36.758Z,93541.81
2023-02-23T06:31:04.751Z,93538.81
2023-02-23T06:33:32.757Z,93542.75
2023-02-23T06:36:01.050Z,93535.88
2023-02-23T06:38:29.653Z,93543.78
2023-02-23T06:40:57.680Z,93541.38
2023-02-23T06:43:25.744Z,93537.50
2023-02-23T06:45:53.865Z,93531.22
2023-02-23T06:48:21.664Z,93537.53
2023-02-23T06:50:49.565Z,93539.56
2023-02-23T06:53:18.576Z,93533.91
2023-02-23T06:55:46.898Z,93531.09
2023-02-23T06:58:14.788Z,93529.25
2023-02-23T07:00:43.900Z,93530.66
2023-02-23T07:03:12.014Z,93516.31
2023-02-23T07:05:40.915Z,93509.81
2023-02-23T07:08:09.043Z,93524.97
2023-02-23T07:10:37.224Z,93509.94
2023-02-23T07:13:05.149Z,93512.09
2023-02-23T07:15:33.161Z,93517.66
2023-02-23T07:18:01.233Z,93512.75
2023-02-23T07:20:29.151Z,93516.19
2023-02-23T07:22:57.819Z,93504.63
2023-02-23T07:25:25.717Z,93505.06
2023-02-23T07:27:54.517Z,93497.59
2023-02-23T07:30:25.615Z,93507.63
2023-02-23T07:32:54.267Z,93504.19
2023-02-23T07:35:22.381Z,93496.63
2023-02-23T07:37:50.365Z,93490.34
2023-02-23T07:40:19.676Z,93491.44
2023-02-23T07:42:47.469Z,93489.13
2023-02-23T07:45:15.345Z,93484.22
2023-02-23T07:47:44.791Z,93478.09
2023-02-23T07:50:14.249Z,93485.28
2023-02-23T07:52:43.933Z,93476.06
2023-02-23T07:55:12.590Z,93459.13
2023-02-23T07:57:40.492Z,93465.53
2023-02-23T08:00:09.212Z,93450.91
2023-02-23T08:02:44.072Z,93449.31
2023-02-23T08:05:13.154Z,93446.16
2023-02-23T08:07:41.064Z,93428.25
2023-02-23T08:10:09.885Z,93444.88
2023-02-23T08:12:38.218Z,93432.72
2023-02-23T08:15:09.700Z,93435.88
2023-02-23T08:17:39.066Z,93433.69
2023-02-23T08:20:08.908Z,93418.28
2023-02-23T08:22:48.431Z,93426.41
2023-02-23T08:25:18.659Z,93423.50
2023-02-23T08:27:47.325Z,93421.63
2023-02-23T08:30:15.782Z,93425.59
2023-02-23T08:32:43.845Z,93425.94
2023-02-23T08:35:12.256Z,93417.75
2023-02-23T08:37:42.084Z,93420.56
2023-02-23T08:40:11.736Z,93427.94
2023-02-23T08:42:39.807Z,93422.56
2023-02-23T08:45:08.741Z,93420.78
2023-02-23T08:47:37.216Z,93411.50
2023-02-23T08:50:05.573Z,93407.28
2023-02-23T08:52:34.319Z,93401.25
2023-02-23T08:55:02.502Z,93404.72
2023-02-23T08:57:33.772Z,93389.28
2023-02-23T09:00:02.436Z,93402.28
2023-02-23T09:02:30.664Z,93392.88
2023-02-23T09:04:59.584Z,93391.66
2023-02-23T09:07:27.621Z,93396.84
2023-02-23T09:09:56.876Z,93395.41
2023-02-23T09:12:25.430Z,93382.06
2023-02-23T09:14:54.037Z,93388.19
2023-02-23T09:17:23.298Z,93386.09
2023-02-23T09:19:51.963Z,93384.41
2023-02-23T09:22:20.077Z,93388.53
2023-02-23T09:24:48.229Z,93379.78
2023-02-23T09:27:16.045Z,93370.88
2023-02-23T09:29:44.723Z,93383.25
2023-02-23T09:32:12.915Z,93375.31
2023-02-23T09:34:40.870Z,93373.38
2023-02-23T09:37:08.905Z,93372.63
2023-02-23T09:39:38.829Z,93379.78
2023-02-23T09:42:16.166Z,93381.47
2023-02-23T09:44:50.168Z,93388.78
2023-02-23T09:47:50.964Z,93349.91
2023-02-23T09:50:25.818Z,93379.84
2023-02-23T09:53:14.640Z,93374.28
2023-02-23T09:55:44.065Z,93371.00
2023-02-23T09:58:23.828Z,93369.47
2023-02-23T10:01:07.084Z,93369.44
2023-02-23T10:03:40.618Z,93376.31
2023-02-23T10:06:14.771Z,93372.31
2023-02-23T10:09:02.704Z,93366.69
2023-02-23T10:11:58.297Z,93364.03
2023-02-23T10:14:51.193Z,93369.25
2023-02-23T10:17:49.637Z,93355.94
2023-02-23T10:20:36.059Z,93358.75
2023-02-23T10:23:13.460Z,93355.41
2023-02-23T10:26:07.880Z,93358.94
2023-02-23T10:28:37.618Z,93347.44
2023-02-23T10:31:24.366Z,93343.41
2023-02-23T10:33:55.628Z,93344.75
2023-02-23T10:36:46.601Z,93344.66
2023-02-23T10:39:14.768Z,93341.47
2023-02-23T10:41:43.652Z,93334.03
2023-02-23T10:44:20.242Z,93328.13
2023-02-23T10:46:55.737Z,93327.41
2023-02-23T10:49:30.880Z,93327.75
2023-02-23T10:52:03.118Z,93318.09
2023-02-23T10:54:39.616Z,93324.19
2023-02-23T10:57:09.052Z,93320.56
2023-02-23T10:59:37.173Z,93316.53
2023-02-23T11:02:38.723Z,93309.84
2023-02-23T11:05:07.439Z,93309.06
2023-02-23T11:07:35.421Z,93310.47
2023-02-23T11:10:27.643Z,93306.25
2023-02-23T11:12:55.640Z,93318.28
2023-02-23T11:15:46.327Z,93313.66
2023-02-23T11:18:26.339Z,93308.41
2023-02-23T11:20:55.815Z,93304.06
2023-02-23T11:23:29.806Z,93301.41
2023-02-23T11:26:00.528Z,93296.88
2023-02-23T11:28:35.242Z,93293.38
2023-02-23T11:31:14.065Z,93297.06
2023-02-23T11:33:42.664Z,93287.81
2023-02-23T11:36:27.051Z,93286.41
2023-02-23T11:39:02.807Z,93292.78
2023-02-23T11:41:33.061Z,93283.22
2023-02-23T11:44:05.584Z,93284.50
2023-02-23T11:46:38.152Z,93277.22
2023-02-23T11:49:07.469Z,93287.50
2023-02-23T11:51:49.855Z,93288.84
2023-02-23T11:54:36.355Z,93281.06
2023-02-23T11:57:04.787Z,93287.00
2023-02-23T11:59:45.496Z,93288.16
2023-02-23T12:02:23.294Z,93290.78
2023-02-23T12:05:21.073Z,93289.34
2023-02-23T12:08:01.669Z,93285.84
2023-02-23T12:10:38.135Z,93291.78
2023-02-23T12:13:07.652Z,93287.53
2023-02-23T12:15:44.062Z,93303.28
2023-02-23T12:18:33.754Z,93293.28
2023-02-23T12:21:17.777Z,93288.41
2023-02-23T12:23:50.418Z,93285.47
2023-02-23T12:26:22.944Z,93288.66
2023-02-23T12:28:59.995Z,93285.84
2023-02-23T12:31:48.538Z,93289.19
2023-02-23T12:34:39.536Z,93280.41
2023-02-23T12:37:16.465Z,93282.19
2023-02-23T12:39:51.842Z,93288.25
2023-02-23T12:42:43.149Z,93291.72
2023-02-23T12:45:23.749Z,93295.16
2023-02-23T12:48:27.311Z,93293.72
2023-02-23T12:51:02.452Z,93302.03
2023-02-23T12:53:53.144Z,93275.97
2023-02-23T12:56:50.025Z,93301.19
2023-02-23T12:59:47.679Z,93302.44
2023-02-23T13:02:53.027Z,93306.47
2023-02-23T13:05:24.691Z,93301.59
2023-02-23T13:08:20.940Z,93307.50
2023-02-23T13:11:11.945Z,93299.28
2023-02-23T13:14:09.487Z,93302.31
2023-02-23T13:16:46.217Z,93292.72
2023-02-23T13:19:22.664Z,93298.91
2023-02-23T13:22:09.587Z,93293.91
2023-02-23T13:24:43.836Z,93288.69
2023-02-23T13:27:34.469Z,93306.78
2023-02-23T13:30:04.196Z,93300.88
2023-02-23T13:32:34.643Z,93307.31
2023-02-23T13:35:09.684Z,93308.75
2023-02-23T13:37:51.108Z,93305.66
2023-02-23T13:40:41.228Z,93309.59
2023-02-23T13:43:37.228Z,93276.97
2023-02-23T13:46:26.522Z,93326.34
2023-02-23T13:49:04.603Z,93325.97
2023-02-23T13:51:52.132Z,93322.75
2023-02-23T13:54:31.088Z,93323.38
2023-02-23T13:57:02.786Z,93332.81
2023-02-23T13:59:38.038Z,93323.38
2023-02-23T14:02:31.141Z,93341.63
2023-02-23T14:05:16.225Z,93339.63
2023-02-23T14:07:47.957Z,93338.97
2023-02-23T14:10:28.876Z,93347.91
2023-02-23T14:13:09.105Z,93351.81
2023-02-23T14:15:40.699Z,93348.38
2023-02-23T14:18:17.898Z,93348.91
2023-02-23T14:21:11.158Z,93353.28
2023-02-23T14:23:48.407Z,93356.06
2023-02-23T14:26:19.178Z,93365.59
2023-02-23T14:29:09.008Z,93369.38
2023-02-23T14:31:38.450Z,93365.91
2023-02-23T14:34:09.481Z,93364.38
2023-02-23T14:36:43.532Z,93363.34
2023-02-23T14:39:24.358Z,93367.34
2023-02-23T14:42:06.724Z,93366.81
2023-02-23T14:44:34.915Z,93367.63
2023-02-23T14:47:18.902Z,93372.44
2023-02-23T14:49:57.364Z,93370.03
2023-02-23T14:52:41.729Z,93371.88
2023-02-23T14:55:12.544Z,93374.31
2023-02-23T14:57:43.839Z,93381.00
2023-02-23T15:00:23.401Z,93385.56
2023-02-23T15:02:58.683Z,93380.19
2023-02-23T15:05:31.099Z,93382.34
2023-02-23T15:08:01.568Z,93391.69
2023-02-23T15:10:35.825Z,93391.16
2023-02-23T15:13:29.015Z,93386.06
2023-02-23T15:15:58.613Z,93398.38
2023-02-23T15:18:39.043Z,93386.06
2023-02-23T15:21:14.170Z,93399.16
2023-02-23T15:23:45.819Z,93400.22
2023-02-23T15:26:41.957Z,93403.41
2023-02-23T15:29:18.829Z,93398.28
2023-02-23T15:31:52.240Z,93417.56
2023-02-23T15:34:27.130Z,93411.16
2023-02-23T15:37:01.979Z,93419.44
2023-02-23T15:39:40.135Z,93409.22
2023-02-23T15:42:15.675Z,93420.50
2023-02-23T15:44:45.566Z,93424.50
2023-02-23T15:47:22.989Z,93424.22
2023-02-23T15:49:51.458Z,93422.06
2023-02-23T15:52:24.347Z,93434.88
2023-02-23T15:55:00.708Z,93433.81
2023-02-23T15:57:44.390Z,93437.81
2023-02-23T16:00:20.258Z,93441.59
2023-02-23T16:02:49.236Z,93441.50
2023-02-23T16:05:25.872Z,93438.81
2023-02-23T16:08:07.923Z,93443.06
2023-02-23T16:10:47.458Z,93450.00
2023-02-23T16:13:21.598Z,93448.56
2023-02-23T16:15:51.040Z,93454.69
2023-02-23T16:18:23.463Z,93460.25
2023-02-23T16:20:58.019Z,93455.09
2023-02-23T16:23:42.014Z,93465.03
2023-02-23T16:26:18.562Z,93472.31
2023-02-23T16:28:47.682Z,93470.88
2023-02-23T16:31:22.825Z,93477.38
2023-02-23T16:34:00.409Z,93481.28
2023-02-23T16:36:38.930Z,93474.38
2023-02-23T16:39:12.900Z,93477.59
2023-02-23T16:41:41.017Z,93479.34
2023-02-23T16:44:18.765Z,93483.69
2023-02-23T16:46:56.294Z,93489.56
2023-02-23T16:49:24.620Z,93493.53
2023-02-23T16:51:52.533Z,93498.50
2023-02-23T16:54:20.934Z,93488.44
2023-02-23T16:56:50.905Z,93501.75
2023-02-23T16:59:19.479Z,93508.72
2023-02-23T17:01:47.837Z,93507.66
2023-02-23T17:04:22.633Z,93498.78
2023-02-23T17:06:58.376Z,93497.84
2023-02-23T17:09:27.838Z,93515.50
2023-02-23T17:11:57.564Z,93513.53
2023-02-23T17:14:28.527Z,93514.50
2023-02-23T17:16:57.049Z,93503.72
2023-02-23T17:19:26.089Z,93512.97
2023-02-23T17:21:55.101Z,93523.44
2023-02-23T17:24:26.389Z,93531.47
2023-02-23T17:26:55.902Z,93529.44
2023-02-23T17:29:24.890Z,93532.22
2023-02-23T17:31:53.447Z,93534.53
2023-02-23T17:34:21.984Z,93536.34
2023-02-23T17:36:50.430Z,93536.06
2023-02-23T17:39:19.119Z,93530.19
2023-02-23T17:41:47.481Z,93533.19
2023-02-23T17:44:16.433Z,93524.81
2023-02-23T17:46:45.199Z,93528.75
2023-02-23T17:49:13.500Z,93530.19
2023-02-23T17:51:42.157Z,93528.59
2023-02-23T17:54:10.734Z,93535.69
2023-02-23T17:56:39.726Z,93536.25
2023-02-23T17:59:08.396Z,93543.28
2023-02-23T18:01:37.148Z,93537.06
2023-02-23T18:04:05.563Z,93529.97
2023-02-23T18:06:33.918Z,93538.28
2023-02-23T18:09:04.876Z,93543.78
2023-02-23T18:11:34.900Z,93539.66
2023-02-23T18:14:04.186Z,93541.97
2023-02-23T18:16:34.184Z,93535.75
2023-02-23T18:19:02.831Z,93534.25
2023-02-23T18:21:34.558Z,93531.59
2023-02-23T18:24:03.020Z,93530.22
2023-02-23T18:26:31.863Z,93536.56
2023-02-23T18:29:00.120Z,93534.78
2023-02-23T18:31:28.934Z,93527.59
2023-02-23T18:34:01.727Z,93539.72
2023-02-23T18:36:32.370Z,93543.66
2023-02-23T18:39:01.582Z,93542.66
2023-02-23T18:41:33.422Z,93549.78
2023-02-23T18:44:04.338Z,93555.91
2023-02-23T18:46:33.712Z,93551.50
2023-02-23T18:49:02.489Z,93552.09
2023-02-23T18:51:31.093Z,93547.50
2023-02-23T18:54:00.471Z,93565.63
2023-02-23T18:56:29.205Z,93564.47
2023-02-23T18:59:01.921Z,93563.53
2023-02-23T19:01:33.634Z,93561.31
2023-02-23T19:04:03.706Z,93565.81
2023-02-23T19:06:33.596Z,93569.84
2023-02-23T19:09:04.607Z,93560.38
2023-02-23T19:11:34.974Z,93559.44
2023-02-23T19:14:06.788Z,93575.53
2023-02-23T19:16:35.680Z,93572.28
2023-02-23T19:19:06.127Z,93580.25
2023-02-23T19:21:36.242Z,93580.53
2023-02-23T19:24:06.006Z,93581.53
2023-02-23T19:26:36.395Z,93583.25
2023-02-23T19:29:05.265Z,93597.91
2023-02-23T19:31:34.692Z,93588.34
2023-02-23T19:34:05.367Z,93590.78
2023-02-23T19:36:34.036Z,93597.25
2023-02-23T19:39:11.220Z,93592.72
2023-02-23T19:41:40.208Z,93591.25
2023-02-23T19:44:08.152Z,93593.91
2023-02-23T19:46:37.627Z,93597.16
2023-02-23T19:49:06.515Z,93597.81
2023-02-23T19:51:35.360Z,93597.38
2023-02-23T19:54:03.788Z,93593.78
2023-02-23T19:56:31.731Z,93605.78
2023-02-23T19:59:02.575Z,93596.13
2023-02-23T20:01:31.394Z,93604.09
2023-02-23T20:04:06.603Z,93601.88
2023-02-23T20:06:41.301Z,93600.72
2023-02-23T20:09:09.911Z,93601.97
2023-02-23T20:11:37.961Z,93591.34
2023-02-23T20:14:08.213Z,93600.47
2023-02-23T20:16:36.846Z,93597.13
2023-02-23T20:19:07.886Z,93595.16
2023-02-23T20:21:37.357Z,93606.50
2023-02-23T20:24:06.326Z,93607.97
2023-02-23T20:26:37.396Z,93602.66
2023-02-23T20:29:11.377Z,93601.75
2023-02-23T20:31:45.155Z,93596.56
2023-02-23T20:34:13.646Z,93606.47
2023-02-23T20:36:42.136Z,93606.81
2023-02-23T20:39:10.983Z,93607.53
2023-02-23T20:41:44.386Z,93606.47
2023-02-23T20:44:13.655Z,93596.00
2023-02-23T20:46:44.080Z,93587.91
2023-02-23T20:49:18.611Z,93602.66
2023-02-23T20:51:48.796Z,93596.44
2023-02-23T20:54:17.575Z,93602.94
2023-02-23T20:57:08.405Z,93602.56
2023-02-23T20:59:51.349Z,93603.38
2023-02-23T21:02:19.395Z,93599.78
2023-02-23T21:04:47.378Z,93602.09
2023-02-23T21:07:15.524Z,93599.88
2023-02-23T21:09:43.827Z,93594.00
2023-02-23T21:12:11.937Z,93596.09
2023-02-23T21:14:40.104Z,93598.97
2023-02-23T21:17:10.077Z,93599.34
2023-02-23T21:19:39.148Z,93592.31
2023-02-23T21:22:07.107Z,93600.25
2023-02-23T21:24:41.254Z,93593.56
2023-02-23T21:27:13.184Z,93594.25
2023-02-23T21:29:42.167Z,93593.53
2023-02-23T21:32:14.297Z,93599.09
2023-02-23T21:34:43.942Z,93583.19
2023-02-23T21:37:12.086Z,93598.13
2023-02-23T21:39:41.170Z,93600.16
2023-02-23T21:42:09.188Z,93563.97
2023-02-23T21:44:37.524Z,93594.91
2023-02-23T21:47:07.411Z,93604.88
2023-02-23T21:49:36.370Z,93602.25
2023-02-23T21:52:04.572Z,93594.66
2023-02-23T21:54:36.768Z,93593.34
2023-02-23T21:57:04.986Z,93597.78
2023-02-23T21:59:35.668Z,93607.00
2023-02-23T22:02:03.988Z,93601.94
2023-02-23T22:04:31.864Z,93595.81
2023-02-23T22:07:00.140Z,93593.97
2023-02-23T22:09:28.226Z,93603.09
2023-02-23T22:11:56.130Z,93608.13
2023-02-23T22:14:23.998Z,93596.78
2023-02-23T22:16:52.047Z,93601.44
2023-02-23T22:19:20.058Z,93607.50
2023-02-23T22:21:48.683Z,93598.63
2023-02-23T22:24:17.475Z,93609.91
2023-02-23T22:26:54.430Z,93599.72
2023-02-23T22:29:24.648Z,93605.22
2023-02-23T22:31:52.982Z,93606.28
2023-02-23T22:34:21.124Z,93578.63
2023-02-23T22:36:50.288Z,93596.59
2023-02-23T22:39:19.059Z,93589.19
2023-02-23T22:41:48.246Z,93608.31
2023-02-23T22:44:18.898Z,93606.41
2023-02-23T22:46:48.878Z,93599.34
2023-02-23T22:49:20.147Z,93599.44
2023-02-23T22:51:48.369Z,93594.75
2023-02-23T22:54:17.634Z,93596.00
2023-02-23T22:56:47.113Z,93599.44
2023-02-23T22:59:17.824Z,93598.03
2023-02-23T23:01:47.837Z,93592.25
2023-02-23T23:04:15.730Z,93598.44
2023-02-23T23:06:44.076Z,93599.59
2023-02-23T23:09:13.096Z,93593.81
2023-02-23T23:11:44.638Z,93595.03
2023-02-23T23:14:12.773Z,93598.50
2023-02-23T23:16:50.154Z,93593.94
2023-02-23T23:19:25.962Z,93589.25
2023-02-23T23:21:55.832Z,93588.63
2023-02-23T23:24:25.239Z,93579.84
2023-02-23T23:26:55.694Z,93578.84
2023-02-23T23:29:25.974Z,93580.28
2023-02-23T23:31:57.291Z,93581.91
2023-02-23T23:34:25.554Z,93577.38
2023-02-23T23:36:55.619Z,93576.56
2023-02-23T23:39:26.459Z,93581.78
2023-02-23T23:41:56.175Z,93575.31
2023-02-23T23:44:30.121Z,93564.28
2023-02-23T23:46:58.630Z,93569.97
2023-02-23T23:49:26.796Z,93574.94
2023-02-23T23:51:59.043Z,93571.97
2023-02-23T23:54:32.843Z,93574.50
2023-02-23T23:57:04.067Z,93573.25
2023-02-23T23:59:34.061Z,93564.22
